sensor_id;sensor_type;location;lat;lon;timestamp;P1;durP1;ratioP1;P2;durP2;ratioP2
48375;SDS011;34178;50.904;11.560;2022-09-29T00:01:09;8.48;;;3.55;;
48375;SDS011;34178;50.904;11.560;2022-09-29T00:03:35;8.00;;;3.40;;
48375;SDS011;34178;50.904;11.560;2022-09-29T00:06:01;6.00;;;3.47;;
48375;SDS011;34178;50.904;11.560;2022-09-29T00:08:27;9.10;;;3.72;;
48375;SDS011;34178;50.904;11.560;2022-09-29T00:10:54;6.90;;;4.00;;
48375;SDS011;34178;50.904;11.560;2022-09-29T00:13:20;8.18;;;3.58;;
48375;SDS011;34178;50.904;11.560;2022-09-29T00:15:58;9.05;;;3.97;;
48375;SDS011;34178;50.904;11.560;2022-09-29T00:18:26;7.13;;;3.40;;
48375;SDS011;34178;50.904;11.560;2022-09-29T00:21:11;7.13;;;3.53;;
48375;SDS011;34178;50.904;11.560;2022-09-29T00:23:38;7.07;;;3.70;;
48375;SDS011;34178;50.904;11.560;2022-09-29T00:28:42;6.88;;;3.80;;
48375;SDS011;34178;50.904;11.560;2022-09-29T00:33:36;7.80;;;3.90;;
48375;SDS011;34178;50.904;11.560;2022-09-29T00:36:03;7.95;;;3.45;;
48375;SDS011;34178;50.904;11.560;2022-09-29T00:38:31;8.57;;;3.70;;
48375;SDS011;34178;50.904;11.560;2022-09-29T00:40:57;8.90;;;3.88;;
48375;SDS011;34178;50.904;11.560;2022-09-29T00:43:24;7.50;;;3.35;;
48375;SDS011;34178;50.904;11.560;2022-09-29T00:46:09;7.40;;;3.20;;
48375;SDS011;34178;50.904;11.560;2022-09-29T00:48:36;9.88;;;3.72;;
48375;SDS011;34178;50.904;11.560;2022-09-29T00:51:02;6.63;;;3.78;;
48375;SDS011;34178;50.904;11.560;2022-09-29T00:53:28;6.75;;;3.65;;
48375;SDS011;34178;50.904;11.560;2022-09-29T00:55:55;6.00;;;3.35;;
48375;SDS011;34178;50.904;11.560;2022-09-29T00:58:40;8.07;;;3.80;;
48375;SDS011;34178;50.904;11.560;2022-09-29T01:01:19;8.23;;;4.03;;
48375;SDS011;34178;50.904;11.560;2022-09-29T01:03:46;7.63;;;3.88;;
48375;SDS011;34178;50.904;11.560;2022-09-29T01:08:43;7.38;;;4.20;;
48375;SDS011;34178;50.904;11.560;2022-09-29T01:11:31;9.63;;;3.13;;
48375;SDS011;34178;50.904;11.560;2022-09-29T01:13:57;6.78;;;4.03;;
48375;SDS011;34178;50.904;11.560;2022-09-29T01:16:27;6.60;;;3.53;;
48375;SDS011;34178;50.904;11.560;2022-09-29T01:19:00;8.38;;;3.70;;
48375;SDS011;34178;50.904;11.560;2022-09-29T01:21:37;7.75;;;3.90;;
48375;SDS011;34178;50.904;11.560;2022-09-29T01:29:50;6.28;;;3.22;;
48375;SDS011;34178;50.904;11.560;2022-09-29T01:43:46;6.30;;;3.28;;
48375;SDS011;34178;50.904;11.560;2022-09-29T01:46:28;6.53;;;3.60;;
48375;SDS011;34178;50.904;11.560;2022-09-29T01:48:57;8.98;;;4.05;;
48375;SDS011;34178;50.904;11.560;2022-09-29T01:51:28;8.80;;;4.03;;
48375;SDS011;34178;50.904;11.560;2022-09-29T01:56:37;6.90;;;3.65;;
48375;SDS011;34178;50.904;11.560;2022-09-29T01:59:17;8.10;;;3.78;;
48375;SDS011;34178;50.904;11.560;2022-09-29T02:01:48;10.48;;;4.00;;
48375;SDS011;34178;50.904;11.560;2022-09-29T02:04:19;8.68;;;4.38;;
48375;SDS011;34178;50.904;11.560;2022-09-29T02:07:09;7.30;;;4.00;;
48375;SDS011;34178;50.904;11.560;2022-09-29T02:09:42;7.85;;;4.15;;
48375;SDS011;34178;50.904;11.560;2022-09-29T02:12:12;9.70;;;4.85;;
48375;SDS011;34178;50.904;11.560;2022-09-29T02:14:46;9.60;;;5.07;;
48375;SDS011;34178;50.904;11.560;2022-09-29T02:19:44;10.88;;;6.18;;
48375;SDS011;34178;50.904;11.560;2022-09-29T02:22:11;12.52;;;6.60;;
48375;SDS011;34178;50.904;11.560;2022-09-29T02:24:38;10.00;;;5.78;;
48375;SDS011;34178;50.904;11.560;2022-09-29T02:27:04;8.55;;;5.03;;
48375;SDS011;34178;50.904;11.560;2022-09-29T02:29:31;10.65;;;5.72;;
48375;SDS011;34178;50.904;11.560;2022-09-29T02:31:58;13.00;;;5.45;;
48375;SDS011;34178;50.904;11.560;2022-09-29T02:34:26;11.80;;;5.35;;
48375;SDS011;34178;50.904;11.560;2022-09-29T02:53:53;9.73;;;5.22;;
48375;SDS011;34178;50.904;11.560;2022-09-29T03:02:29;9.50;;;4.78;;
48375;SDS011;34178;50.904;11.560;2022-09-29T03:04:55;8.70;;;4.82;;
48375;SDS011;34178;50.904;11.560;2022-09-29T03:07:21;9.38;;;4.90;;
48375;SDS011;34178;50.904;11.560;2022-09-29T03:09:46;8.48;;;4.55;;
48375;SDS011;34178;50.904;11.560;2022-09-29T03:12:12;8.15;;;4.60;;
48375;SDS011;34178;50.904;11.560;2022-09-29T03:14:38;7.65;;;3.97;;
48375;SDS011;34178;50.904;11.560;2022-09-29T03:17:03;7.75;;;4.50;;
48375;SDS011;34178;50.904;11.560;2022-09-29T03:19:29;7.43;;;4.10;;
48375;SDS011;34178;50.904;11.560;2022-09-29T03:21:54;7.47;;;4.35;;
48375;SDS011;34178;50.904;11.560;2022-09-29T03:24:20;8.48;;;4.45;;
48375;SDS011;34178;50.904;11.560;2022-09-29T03:26:46;7.20;;;4.53;;
48375;SDS011;34178;50.904;11.560;2022-09-29T03:29:11;6.75;;;3.92;;
48375;SDS011;34178;50.904;11.560;2022-09-29T03:31:40;8.88;;;4.75;;
48375;SDS011;34178;50.904;11.560;2022-09-29T03:34:05;7.97;;;4.25;;
48375;SDS011;34178;50.904;11.560;2022-09-29T03:36:31;7.60;;;4.40;;
48375;SDS011;34178;50.904;11.560;2022-09-29T03:38:56;6.90;;;4.00;;
48375;SDS011;34178;50.904;11.560;2022-09-29T03:41:22;6.80;;;3.88;;
48375;SDS011;34178;50.904;11.560;2022-09-29T03:43:48;7.57;;;4.03;;
48375;SDS011;34178;50.904;11.560;2022-09-29T03:46:13;6.60;;;4.07;;
48375;SDS011;34178;50.904;11.560;2022-09-29T03:48:39;7.05;;;4.00;;
48375;SDS011;34178;50.904;11.560;2022-09-29T03:51:05;6.65;;;3.90;;
48375;SDS011;34178;50.904;11.560;2022-09-29T03:53:32;7.63;;;4.40;;
48375;SDS011;34178;50.904;11.560;2022-09-29T03:55:59;7.80;;;4.00;;
48375;SDS011;34178;50.904;11.560;2022-09-29T03:58:25;7.57;;;4.25;;
48375;SDS011;34178;50.904;11.560;2022-09-29T04:00:51;7.25;;;3.92;;
48375;SDS011;34178;50.904;11.560;2022-09-29T04:03:17;7.70;;;4.03;;
48375;SDS011;34178;50.904;11.560;2022-09-29T04:05:44;6.30;;;3.78;;
48375;SDS011;34178;50.904;11.560;2022-09-29T04:08:11;6.25;;;3.75;;
48375;SDS011;34178;50.904;11.560;2022-09-29T04:10:37;7.05;;;3.80;;
48375;SDS011;34178;50.904;11.560;2022-09-29T04:13:03;6.72;;;3.95;;
48375;SDS011;34178;50.904;11.560;2022-09-29T04:15:29;12.02;;;4.50;;
48375;SDS011;34178;50.904;11.560;2022-09-29T04:17:56;7.95;;;4.47;;
48375;SDS011;34178;50.904;11.560;2022-09-29T04:20:21;8.52;;;4.75;;
48375;SDS011;34178;50.904;11.560;2022-09-29T04:22:47;8.80;;;4.57;;
48375;SDS011;34178;50.904;11.560;2022-09-29T04:25:13;11.57;;;4.38;;
48375;SDS011;34178;50.904;11.560;2022-09-29T04:27:38;9.52;;;4.45;;
48375;SDS011;34178;50.904;11.560;2022-09-29T04:30:04;8.75;;;4.60;;
48375;SDS011;34178;50.904;11.560;2022-09-29T04:32:31;7.43;;;4.13;;
48375;SDS011;34178;50.904;11.560;2022-09-29T04:34:56;10.73;;;5.32;;
48375;SDS011;34178;50.904;11.560;2022-09-29T04:37:22;8.98;;;4.38;;
48375;SDS011;34178;50.904;11.560;2022-09-29T04:39:48;9.45;;;4.80;;
48375;SDS011;34178;50.904;11.560;2022-09-29T04:42:14;9.63;;;4.07;;
48375;SDS011;34178;50.904;11.560;2022-09-29T04:44:40;7.90;;;4.45;;
48375;SDS011;34178;50.904;11.560;2022-09-29T04:47:05;9.27;;;5.13;;
48375;SDS011;34178;50.904;11.560;2022-09-29T04:49:31;7.22;;;4.50;;
48375;SDS011;34178;50.904;11.560;2022-09-29T04:51:57;9.10;;;4.55;;
48375;SDS011;34178;50.904;11.560;2022-09-29T04:54:22;6.97;;;4.20;;
48375;SDS011;34178;50.904;11.560;2022-09-29T04:56:48;8.32;;;4.75;;
48375;SDS011;34178;50.904;11.560;2022-09-29T04:59:14;7.47;;;4.45;;
48375;SDS011;34178;50.904;11.560;2022-09-29T05:01:41;7.70;;;4.50;;
48375;SDS011;34178;50.904;11.560;2022-09-29T05:04:07;9.05;;;5.60;;
48375;SDS011;34178;50.904;11.560;2022-09-29T05:06:34;14.13;;;8.10;;
48375;SDS011;34178;50.904;11.560;2022-09-29T05:09:03;10.68;;;5.38;;
48375;SDS011;34178;50.904;11.560;2022-09-29T05:11:29;9.10;;;5.25;;
48375;SDS011;34178;50.904;11.560;2022-09-29T05:13:55;9.48;;;4.88;;
48375;SDS011;34178;50.904;11.560;2022-09-29T05:16:21;9.55;;;4.93;;
48375;SDS011;34178;50.904;11.560;2022-09-29T05:18:46;10.85;;;6.18;;
48375;SDS011;34178;50.904;11.560;2022-09-29T05:21:12;11.10;;;7.38;;
48375;SDS011;34178;50.904;11.560;2022-09-29T05:23:38;10.32;;;5.60;;
48375;SDS011;34178;50.904;11.560;2022-09-29T05:26:04;8.77;;;5.30;;
48375;SDS011;34178;50.904;11.560;2022-09-29T05:28:31;9.85;;;5.38;;
48375;SDS011;34178;50.904;11.560;2022-09-29T05:31:03;9.32;;;5.65;;
48375;SDS011;34178;50.904;11.560;2022-09-29T05:33:31;12.43;;;5.60;;
48375;SDS011;34178;50.904;11.560;2022-09-29T05:35:57;8.45;;;5.20;;
48375;SDS011;34178;50.904;11.560;2022-09-29T05:38:23;8.93;;;5.50;;
48375;SDS011;34178;50.904;11.560;2022-09-29T05:40:49;11.10;;;5.80;;
48375;SDS011;34178;50.904;11.560;2022-09-29T05:43:16;8.77;;;5.25;;
48375;SDS011;34178;50.904;11.560;2022-09-29T05:45:42;11.30;;;6.60;;
48375;SDS011;34178;50.904;11.560;2022-09-29T05:48:08;19.65;;;5.63;;
48375;SDS011;34178;50.904;11.560;2022-09-29T05:50:34;10.48;;;5.40;;
48375;SDS011;34178;50.904;11.560;2022-09-29T05:53:09;8.98;;;5.20;;
48375;SDS011;34178;50.904;11.560;2022-09-29T05:55:36;9.07;;;5.25;;
48375;SDS011;34178;50.904;11.560;2022-09-29T05:58:03;9.35;;;5.65;;
48375;SDS011;34178;50.904;11.560;2022-09-29T06:00:29;9.50;;;5.38;;
48375;SDS011;34178;50.904;11.560;2022-09-29T06:02:58;9.43;;;5.70;;
48375;SDS011;34178;50.904;11.560;2022-09-29T06:05:25;9.52;;;5.40;;
48375;SDS011;34178;50.904;11.560;2022-09-29T06:07:51;10.55;;;5.72;;
48375;SDS011;34178;50.904;11.560;2022-09-29T06:10:17;10.93;;;6.50;;
48375;SDS011;34178;50.904;11.560;2022-09-29T06:12:43;10.93;;;5.85;;
48375;SDS011;34178;50.904;11.560;2022-09-29T06:15:09;10.27;;;5.80;;
48375;SDS011;34178;50.904;11.560;2022-09-29T06:17:35;9.23;;;6.03;;
48375;SDS011;34178;50.904;11.560;2022-09-29T06:20:02;10.60;;;6.38;;
48375;SDS011;34178;50.904;11.560;2022-09-29T06:22:29;13.65;;;7.45;;
48375;SDS011;34178;50.904;11.560;2022-09-29T06:24:54;10.05;;;5.82;;
48375;SDS011;34178;50.904;11.560;2022-09-29T06:27:20;11.00;;;5.82;;
48375;SDS011;34178;50.904;11.560;2022-09-29T06:29:46;9.15;;;5.75;;
48375;SDS011;34178;50.904;11.560;2022-09-29T06:32:11;9.20;;;6.30;;
48375;SDS011;34178;50.904;11.560;2022-09-29T06:34:37;9.68;;;6.05;;
48375;SDS011;34178;50.904;11.560;2022-09-29T06:37:23;19.90;;;12.00;;
48375;SDS011;34178;50.904;11.560;2022-09-29T06:40:03;9.82;;;6.60;;
48375;SDS011;34178;50.904;11.560;2022-09-29T06:42:34;11.63;;;5.70;;
48375;SDS011;34178;50.904;11.560;2022-09-29T06:44:59;11.80;;;7.72;;
48375;SDS011;34178;50.904;11.560;2022-09-29T06:47:26;13.07;;;8.35;;
48375;SDS011;34178;50.904;11.560;2022-09-29T06:49:51;10.10;;;7.20;;
48375;SDS011;34178;50.904;11.560;2022-09-29T06:52:17;10.60;;;6.45;;
48375;SDS011;34178;50.904;11.560;2022-09-29T06:54:43;10.25;;;6.40;;
48375;SDS011;34178;50.904;11.560;2022-09-29T06:57:09;12.90;;;7.30;;
48375;SDS011;34178;50.904;11.560;2022-09-29T06:59:34;12.18;;;7.55;;
48375;SDS011;34178;50.904;11.560;2022-09-29T07:02:00;11.23;;;7.20;;
48375;SDS011;34178;50.904;11.560;2022-09-29T07:04:26;12.45;;;7.70;;
48375;SDS011;34178;50.904;11.560;2022-09-29T07:06:52;13.57;;;7.60;;
48375;SDS011;34178;50.904;11.560;2022-09-29T07:09:18;12.35;;;7.43;;
48375;SDS011;34178;50.904;11.560;2022-09-29T07:11:45;13.52;;;7.65;;
48375;SDS011;34178;50.904;11.560;2022-09-29T07:14:15;13.32;;;8.10;;
48375;SDS011;34178;50.904;11.560;2022-09-29T07:16:42;16.20;;;7.68;;
48375;SDS011;34178;50.904;11.560;2022-09-29T07:19:08;15.13;;;8.15;;
48375;SDS011;34178;50.904;11.560;2022-09-29T07:21:34;13.77;;;7.10;;
48375;SDS011;34178;50.904;11.560;2022-09-29T07:24:00;12.63;;;7.75;;
48375;SDS011;34178;50.904;11.560;2022-09-29T07:26:26;12.32;;;7.78;;
48375;SDS011;34178;50.904;11.560;2022-09-29T07:28:52;12.80;;;8.27;;
48375;SDS011;34178;50.904;11.560;2022-09-29T07:31:18;12.68;;;8.10;;
48375;SDS011;34178;50.904;11.560;2022-09-29T07:33:46;15.02;;;9.15;;
48375;SDS011;34178;50.904;11.560;2022-09-29T07:36:13;13.65;;;8.55;;
48375;SDS011;34178;50.904;11.560;2022-09-29T07:38:40;14.23;;;8.45;;
48375;SDS011;34178;50.904;11.560;2022-09-29T07:41:09;15.10;;;8.88;;
48375;SDS011;34178;50.904;11.560;2022-09-29T07:43:36;14.13;;;7.90;;
48375;SDS011;34178;50.904;11.560;2022-09-29T07:46:02;15.35;;;9.50;;
48375;SDS011;34178;50.904;11.560;2022-09-29T07:48:28;14.77;;;9.30;;
48375;SDS011;34178;50.904;11.560;2022-09-29T07:56:17;16.10;;;9.18;;
48375;SDS011;34178;50.904;11.560;2022-09-29T07:58:44;12.18;;;7.47;;
48375;SDS011;34178;50.904;11.560;2022-09-29T08:01:11;12.90;;;7.72;;
48375;SDS011;34178;50.904;11.560;2022-09-29T08:03:40;15.02;;;8.52;;
48375;SDS011;34178;50.904;11.560;2022-09-29T08:06:12;12.57;;;8.68;;
48375;SDS011;34178;50.904;11.560;2022-09-29T08:08:39;12.93;;;8.15;;
48375;SDS011;34178;50.904;11.560;2022-09-29T08:11:06;13.30;;;9.55;;
48375;SDS011;34178;50.904;11.560;2022-09-29T08:13:33;16.33;;;9.38;;
48375;SDS011;34178;50.904;11.560;2022-09-29T08:16:01;16.58;;;10.48;;
48375;SDS011;34178;50.904;11.560;2022-09-29T08:18:28;14.85;;;9.82;;
48375;SDS011;34178;50.904;11.560;2022-09-29T08:20:55;13.43;;;8.82;;
48375;SDS011;34178;50.904;11.560;2022-09-29T08:23:21;14.05;;;8.65;;
48375;SDS011;34178;50.904;11.560;2022-09-29T08:25:47;12.70;;;8.68;;
48375;SDS011;34178;50.904;11.560;2022-09-29T08:28:13;15.20;;;9.38;;
48375;SDS011;34178;50.904;11.560;2022-09-29T08:30:39;11.98;;;8.55;;
48375;SDS011;34178;50.904;11.560;2022-09-29T08:33:04;10.88;;;8.15;;
48375;SDS011;34178;50.904;11.560;2022-09-29T08:35:38;12.00;;;7.70;;
48375;SDS011;34178;50.904;11.560;2022-09-29T08:38:05;11.82;;;7.20;;
48375;SDS011;34178;50.904;11.560;2022-09-29T08:40:30;10.23;;;7.28;;
48375;SDS011;34178;50.904;11.560;2022-09-29T08:43:03;9.88;;;6.47;;
48375;SDS011;34178;50.904;11.560;2022-09-29T08:45:40;12.15;;;7.20;;
48375;SDS011;34178;50.904;11.560;2022-09-29T08:48:23;11.65;;;7.03;;
48375;SDS011;34178;50.904;11.560;2022-09-29T08:50:54;10.13;;;6.90;;
48375;SDS011;34178;50.904;11.560;2022-09-29T08:53:24;10.27;;;6.75;;
48375;SDS011;34178;50.904;11.560;2022-09-29T08:58:53;9.38;;;6.07;;
48375;SDS011;34178;50.904;11.560;2022-09-29T09:01:31;9.95;;;5.90;;
48375;SDS011;34178;50.904;11.560;2022-09-29T09:09:53;7.97;;;5.10;;
48375;SDS011;34178;50.904;11.560;2022-09-29T09:23:26;9.60;;;4.95;;
48375;SDS011;34178;50.904;11.560;2022-09-29T09:25:57;8.30;;;4.68;;
48375;SDS011;34178;50.904;11.560;2022-09-29T09:28:27;10.07;;;5.70;;
48375;SDS011;34178;50.904;11.560;2022-09-29T09:31:23;8.75;;;4.75;;
48375;SDS011;34178;50.904;11.560;2022-09-29T09:33:59;7.75;;;5.03;;
48375;SDS011;34178;50.904;11.560;2022-09-29T09:36:41;10.40;;;5.32;;
48375;SDS011;34178;50.904;11.560;2022-09-29T09:39:12;9.40;;;4.97;;
48375;SDS011;34178;50.904;11.560;2022-09-29T09:41:43;8.95;;;4.97;;
48375;SDS011;34178;50.904;11.560;2022-09-29T09:44:14;7.93;;;4.47;;
48375;SDS011;34178;50.904;11.560;2022-09-29T09:49:31;11.25;;;5.63;;
48375;SDS011;34178;50.904;11.560;2022-09-29T09:54:38;9.25;;;4.90;;
48375;SDS011;34178;50.904;11.560;2022-09-29T09:57:09;8.38;;;5.10;;
48375;SDS011;34178;50.904;11.560;2022-09-29T10:00:15;8.13;;;4.55;;
48375;SDS011;34178;50.904;11.560;2022-09-29T10:02:46;6.90;;;4.15;;
48375;SDS011;34178;50.904;11.560;2022-09-29T10:05:20;9.05;;;5.00;;
48375;SDS011;34178;50.904;11.560;2022-09-29T10:07:54;7.95;;;4.38;;
48375;SDS011;34178;50.904;11.560;2022-09-29T10:10:24;9.57;;;4.70;;
48375;SDS011;34178;50.904;11.560;2022-09-29T10:12:57;8.45;;;4.80;;
48375;SDS011;34178;50.904;11.560;2022-09-29T10:15:30;8.73;;;4.60;;
48375;SDS011;34178;50.904;11.560;2022-09-29T10:18:25;8.85;;;4.03;;
48375;SDS011;34178;50.904;11.560;2022-09-29T10:20:55;8.95;;;4.10;;
48375;SDS011;34178;50.904;11.560;2022-09-29T10:23:25;7.57;;;4.20;;
48375;SDS011;34178;50.904;11.560;2022-09-29T10:28:44;8.52;;;3.90;;
48375;SDS011;34178;50.904;11.560;2022-09-29T10:33:57;6.65;;;3.80;;
48375;SDS011;34178;50.904;11.560;2022-09-29T10:36:51;4.93;;;3.33;;
48375;SDS011;34178;50.904;11.560;2022-09-29T10:42:14;7.70;;;3.33;;
48375;SDS011;34178;50.904;11.560;2022-09-29T10:48:05;8.07;;;3.47;;
48375;SDS011;34178;50.904;11.560;2022-09-29T10:50:35;8.65;;;4.20;;
48375;SDS011;34178;50.904;11.560;2022-09-29T10:53:32;8.88;;;3.63;;
48375;SDS011;34178;50.904;11.560;2022-09-29T10:55:58;8.68;;;3.53;;
48375;SDS011;34178;50.904;11.560;2022-09-29T11:01:06;8.20;;;3.45;;
48375;SDS011;34178;50.904;11.560;2022-09-29T11:03:40;6.28;;;2.85;;
48375;SDS011;34178;50.904;11.560;2022-09-29T11:06:19;6.75;;;2.90;;
48375;SDS011;34178;50.904;11.560;2022-09-29T11:09:25;7.20;;;3.13;;
48375;SDS011;34178;50.904;11.560;2022-09-29T11:14:27;9.98;;;6.32;;
48375;SDS011;34178;50.904;11.560;2022-09-29T11:19:46;6.68;;;3.70;;
48375;SDS011;34178;50.904;11.560;2022-09-29T11:55:00;7.90;;;2.75;;
48375;SDS011;34178;50.904;11.560;2022-09-29T12:03:31;9.57;;;3.28;;
48375;SDS011;34178;50.904;11.560;2022-09-29T12:11:43;8.60;;;3.20;;
48375;SDS011;34178;50.904;11.560;2022-09-29T12:17:26;5.00;;;2.30;;
48375;SDS011;34178;50.904;11.560;2022-09-29T12:19:59;5.35;;;1.83;;
48375;SDS011;34178;50.904;11.560;2022-09-29T12:22:42;4.95;;;1.73;;
48375;SDS011;34178;50.904;11.560;2022-09-29T12:25:15;5.82;;;2.03;;
48375;SDS011;34178;50.904;11.560;2022-09-29T12:27:43;7.90;;;2.28;;
48375;SDS011;34178;50.904;11.560;2022-09-29T12:30:19;3.97;;;1.55;;
48375;SDS011;34178;50.904;11.560;2022-09-29T12:33:05;7.22;;;2.22;;
48375;SDS011;34178;50.904;11.560;2022-09-29T12:38:20;4.32;;;1.42;;
48375;SDS011;34178;50.904;11.560;2022-09-29T12:41:13;3.88;;;1.60;;
48375;SDS011;34178;50.904;11.560;2022-09-29T12:46:43;4.10;;;1.67;;
48375;SDS011;34178;50.904;11.560;2022-09-29T12:52:01;6.50;;;3.13;;
48375;SDS011;34178;50.904;11.560;2022-09-29T12:54:42;7.18;;;4.30;;
48375;SDS011;34178;50.904;11.560;2022-09-29T12:57:26;5.65;;;2.67;;
48375;SDS011;34178;50.904;11.560;2022-09-29T13:19:31;4.20;;;1.50;;
48375;SDS011;34178;50.904;11.560;2022-09-29T13:27:31;4.03;;;1.40;;
48375;SDS011;34178;50.904;11.560;2022-09-29T13:30:05;2.58;;;1.02;;
48375;SDS011;34178;50.904;11.560;2022-09-29T13:32:40;2.17;;;0.90;;
48375;SDS011;34178;50.904;11.560;2022-09-29T13:35:18;4.38;;;1.13;;
48375;SDS011;34178;50.904;11.560;2022-09-29T13:37:54;3.17;;;0.90;;
48375;SDS011;34178;50.904;11.560;2022-09-29T13:40:26;3.05;;;1.00;;
48375;SDS011;34178;50.904;11.560;2022-09-29T13:42:57;3.40;;;0.90;;
48375;SDS011;34178;50.904;11.560;2022-09-29T13:47:56;4.18;;;1.30;;
48375;SDS011;34178;50.904;11.560;2022-09-29T13:50:38;2.30;;;0.90;;
48375;SDS011;34178;50.904;11.560;2022-09-29T14:01:29;3.10;;;1.30;;
48375;SDS011;34178;50.904;11.560;2022-09-29T14:07:01;2.15;;;0.65;;
48375;SDS011;34178;50.904;11.560;2022-09-29T14:09:30;2.17;;;0.80;;
48375;SDS011;34178;50.904;11.560;2022-09-29T14:12:05;4.75;;;1.58;;
48375;SDS011;34178;50.904;11.560;2022-09-29T14:14:38;5.57;;;0.90;;
48375;SDS011;34178;50.904;11.560;2022-09-29T14:17:14;2.72;;;1.10;;
48375;SDS011;34178;50.904;11.560;2022-09-29T14:30:20;2.83;;;1.10;;
48375;SDS011;34178;50.904;11.560;2022-09-29T14:38:37;2.88;;;1.30;;
48375;SDS011;34178;50.904;11.560;2022-09-29T14:43:39;3.63;;;1.50;;
48375;SDS011;34178;50.904;11.560;2022-09-29T14:49:18;5.70;;;2.10;;
48375;SDS011;34178;50.904;11.560;2022-09-29T14:52:16;4.13;;;1.52;;
48375;SDS011;34178;50.904;11.560;2022-09-29T14:55:14;3.85;;;1.27;;
48375;SDS011;34178;50.904;11.560;2022-09-29T15:06:17;4.10;;;1.30;;
48375;SDS011;34178;50.904;11.560;2022-09-29T15:09:01;2.83;;;1.20;;
48375;SDS011;34178;50.904;11.560;2022-09-29T15:11:57;2.05;;;0.90;;
48375;SDS011;34178;50.904;11.560;2022-09-29T15:14:30;2.78;;;0.88;;
48375;SDS011;34178;50.904;11.560;2022-09-29T15:22:34;2.45;;;1.05;;
48375;SDS011;34178;50.904;11.560;2022-09-29T15:28:11;1.65;;;0.75;;
48375;SDS011;34178;50.904;11.560;2022-09-29T15:30:54;2.17;;;0.82;;
48375;SDS011;34178;50.904;11.560;2022-09-29T15:33:24;1.23;;;0.60;;
48375;SDS011;34178;50.904;11.560;2022-09-29T15:35:56;2.00;;;0.80;;
48375;SDS011;34178;50.904;11.560;2022-09-29T15:41:23;1.75;;;0.57;;
48375;SDS011;34178;50.904;11.560;2022-09-29T15:43:52;2.47;;;1.23;;
48375;SDS011;34178;50.904;11.560;2022-09-29T15:49:14;2.20;;;0.80;;
48375;SDS011;34178;50.904;11.560;2022-09-29T15:51:58;1.83;;;0.77;;
48375;SDS011;34178;50.904;11.560;2022-09-29T15:54:25;1.92;;;0.90;;
48375;SDS011;34178;50.904;11.560;2022-09-29T15:56:58;2.38;;;0.80;;
48375;SDS011;34178;50.904;11.560;2022-09-29T15:59:44;3.60;;;1.60;;
48375;SDS011;34178;50.904;11.560;2022-09-29T16:05:10;2.50;;;0.80;;
48375;SDS011;34178;50.904;11.560;2022-09-29T16:07:48;3.15;;;1.48;;
48375;SDS011;34178;50.904;11.560;2022-09-29T16:10:18;4.05;;;1.60;;
48375;SDS011;34178;50.904;11.560;2022-09-29T16:13:02;5.15;;;1.63;;
48375;SDS011;34178;50.904;11.560;2022-09-29T16:15:36;2.50;;;1.30;;
48375;SDS011;34178;50.904;11.560;2022-09-29T16:18:07;3.22;;;1.70;;
48375;SDS011;34178;50.904;11.560;2022-09-29T16:20:41;12.05;;;8.55;;
48375;SDS011;34178;50.904;11.560;2022-09-29T16:23:16;6.88;;;3.10;;
48375;SDS011;34178;50.904;11.560;2022-09-29T16:26:07;3.90;;;2.13;;
48375;SDS011;34178;50.904;11.560;2022-09-29T16:28:36;7.63;;;3.90;;
48375;SDS011;34178;50.904;11.560;2022-09-29T16:31:04;9.90;;;4.82;;
48375;SDS011;34178;50.904;11.560;2022-09-29T16:33:42;15.02;;;8.45;;
48375;SDS011;34178;50.904;11.560;2022-09-29T16:36:13;16.10;;;9.50;;
48375;SDS011;34178;50.904;11.560;2022-09-29T16:38:44;13.98;;;8.95;;
48375;SDS011;34178;50.904;11.560;2022-09-29T16:43:55;11.07;;;4.88;;
48375;SDS011;34178;50.904;11.560;2022-09-29T16:52:24;12.45;;;7.35;;
48375;SDS011;34178;50.904;11.560;2022-09-29T16:57:54;9.52;;;6.18;;
48375;SDS011;34178;50.904;11.560;2022-09-29T17:00:37;14.43;;;6.55;;
48375;SDS011;34178;50.904;11.560;2022-09-29T17:03:03;13.00;;;6.43;;
48375;SDS011;34178;50.904;11.560;2022-09-29T17:05:29;14.70;;;10.25;;
48375;SDS011;34178;50.904;11.560;2022-09-29T17:08:09;10.40;;;5.70;;
48375;SDS011;34178;50.904;11.560;2022-09-29T17:10:58;8.23;;;5.70;;
48375;SDS011;34178;50.904;11.560;2022-09-29T17:13:27;9.90;;;7.25;;
48375;SDS011;34178;50.904;11.560;2022-09-29T17:15:56;10.27;;;6.38;;
48375;SDS011;34178;50.904;11.560;2022-09-29T17:18:22;11.77;;;7.15;;
48375;SDS011;34178;50.904;11.560;2022-09-29T17:20:51;11.60;;;6.10;;
48375;SDS011;34178;50.904;11.560;2022-09-29T17:23:16;9.02;;;5.60;;
48375;SDS011;34178;50.904;11.560;2022-09-29T17:25:43;9.27;;;5.18;;
48375;SDS011;34178;50.904;11.560;2022-09-29T17:28:14;9.40;;;6.18;;
48375;SDS011;34178;50.904;11.560;2022-09-29T17:30:48;11.30;;;8.23;;
48375;SDS011;34178;50.904;11.560;2022-09-29T17:33:16;14.68;;;9.55;;
48375;SDS011;34178;50.904;11.560;2022-09-29T17:35:44;15.93;;;10.15;;
48375;SDS011;34178;50.904;11.560;2022-09-29T17:38:12;20.08;;;10.90;;
48375;SDS011;34178;50.904;11.560;2022-09-29T17:43:13;9.43;;;4.68;;
48375;SDS011;34178;50.904;11.560;2022-09-29T17:45:41;7.45;;;4.85;;
48375;SDS011;34178;50.904;11.560;2022-09-29T17:48:08;10.30;;;4.75;;
48375;SDS011;34178;50.904;11.560;2022-09-29T17:53:08;7.15;;;4.40;;
48375;SDS011;34178;50.904;11.560;2022-09-29T17:55:37;8.50;;;4.30;;
48375;SDS011;34178;50.904;11.560;2022-09-29T17:58:02;5.60;;;3.25;;
48375;SDS011;34178;50.904;11.560;2022-09-29T18:00:34;7.53;;;3.45;;
48375;SDS011;34178;50.904;11.560;2022-09-29T18:03:02;9.32;;;3.78;;
48375;SDS011;34178;50.904;11.560;2022-09-29T18:05:33;6.90;;;3.40;;
48375;SDS011;34178;50.904;11.560;2022-09-29T18:08:00;8.70;;;3.80;;
48375;SDS011;34178;50.904;11.560;2022-09-29T18:13:07;7.15;;;4.43;;
48375;SDS011;34178;50.904;11.560;2022-09-29T18:15:33;10.50;;;5.22;;
48375;SDS011;34178;50.904;11.560;2022-09-29T18:18:01;10.18;;;5.32;;
48375;SDS011;34178;50.904;11.560;2022-09-29T18:20:29;8.70;;;4.20;;
48375;SDS011;34178;50.904;11.560;2022-09-29T18:22:56;7.93;;;4.45;;
48375;SDS011;34178;50.904;11.560;2022-09-29T18:25:26;7.43;;;3.50;;
48375;SDS011;34178;50.904;11.560;2022-09-29T18:27:53;6.80;;;3.83;;
48375;SDS011;34178;50.904;11.560;2022-09-29T18:30:23;7.07;;;3.50;;
48375;SDS011;34178;50.904;11.560;2022-09-29T18:32:52;9.40;;;4.40;;
48375;SDS011;34178;50.904;11.560;2022-09-29T18:35:34;10.68;;;4.28;;
48375;SDS011;34178;50.904;11.560;2022-09-29T18:38:01;8.13;;;4.90;;
48375;SDS011;34178;50.904;11.560;2022-09-29T18:40:28;7.07;;;4.00;;
48375;SDS011;34178;50.904;11.560;2022-09-29T18:42:55;8.35;;;3.78;;
48375;SDS011;34178;50.904;11.560;2022-09-29T18:45:23;9.77;;;4.88;;
48375;SDS011;34178;50.904;11.560;2022-09-29T18:47:51;12.02;;;4.70;;
48375;SDS011;34178;50.904;11.560;2022-09-29T18:50:22;8.23;;;4.55;;
48375;SDS011;34178;50.904;11.560;2022-09-29T18:52:52;8.98;;;5.22;;
48375;SDS011;34178;50.904;11.560;2022-09-29T18:55:20;10.43;;;5.75;;
48375;SDS011;34178;50.904;11.560;2022-09-29T18:57:48;8.85;;;5.32;;
48375;SDS011;34178;50.904;11.560;2022-09-29T19:00:15;6.70;;;4.22;;
48375;SDS011;34178;50.904;11.560;2022-09-29T19:02:43;8.30;;;4.13;;
48375;SDS011;34178;50.904;11.560;2022-09-29T19:05:10;8.15;;;4.72;;
48375;SDS011;34178;50.904;11.560;2022-09-29T19:07:41;7.90;;;4.80;;
48375;SDS011;34178;50.904;11.560;2022-09-29T19:10:08;8.15;;;5.18;;
48375;SDS011;34178;50.904;11.560;2022-09-29T19:12:34;5.53;;;3.65;;
48375;SDS011;34178;50.904;11.560;2022-09-29T19:15:00;6.63;;;4.28;;